Aérodrome :
LOGIN :

S'inscrire | Disclaimer

   EN    FR    IT 

 










Légende :    VFR   VFR Marginal   IFR   IFR Intensif   IFR Très Intensif
Visi : 
Plafond : 
>= 8 km
>= 3000ft
5 à 8 km
1000 à 3000 ft
1500m à 5 km
500 à 1000 ft
800 à 1500m
200 à 500 ft
< 800m
< 200 ft
Symboles :   Orages  Brouillard  Fortes neiges  Fortes précipitations  Vent > 20 kt
SIGMETs :   Divers  Orages  Givrage  Turbulence  Onde Orograph.  Cendres Volcan.







- Altitude de l'aérodrome : 202 ft
- Code IATA : LGW
- Voir les cartes d'approche


EGKK - London Gatwick

DERNIER METAR :
  • 150920Z 33009KT 9000 -RA SCT006 BKN010 03/02 Q0995

METARs EXPIRÉS :
  • 150850Z 33009KT 300V360 9000 -RA BKN008 03/02 Q0994
  • 150820Z 34009KT 9000 FEW008 BKN012 03/02 Q0993
  • 150750Z 33010KT 9000 -SHRA BKN009 04/03 Q0992
  • 150720Z VRB03KT 9999 -SHRA BKN014 03/03 Q0991

TAF TAF EGKK
Valide du 15 à 06h jusqu'au 16 à 12h UTC


150458Z 1506/1612 24008KT 9999 SCT025
BECMG 1506/1509 34012KT BKN012
TEMPO 1506/1510 6000 SHRA
PROB30
TEMPO 1506/1510 BKN006
BECMG 1509/1512 SCT018
PROB30
TEMPO 1512/1518 35015G25KT 8000 -SHRA BKN014
PROB30 1518/1603 BKN014
Pas de NOTAMs connus pour ce terrain.



MET'MAP, la Météo Aéronautique d'un coup d'oeil ! - Copyright ORBIFLY Décembre 2007 - Disclaimer

ORBIFLY MET'MAP TEAM :

Programmation & Développement : Alexandra Zaïnal
Conception & Développement : Baudouin d'Aumeries
Co-Programmation & Développement : Marc-Olivier Méhu
Soutien technique & logistique : Manuel Goepfert

Contact : metmap@orbifly.com




SOURCES & CREDITS :

   NOAA